createdAt,value
2019-03-31T00:01:47.051Z,1.00
2019-03-31T00:04:20.105Z,1.00
2019-03-31T00:06:52.908Z,1.00
2019-03-31T00:09:25.867Z,1.00
2019-03-31T00:11:58.814Z,1.00
2019-03-31T00:14:32.200Z,1.00
2019-03-31T00:17:17.259Z,1.00
2019-03-31T00:19:50.308Z,1.10
2019-03-31T00:22:23.531Z,1.10
2019-03-31T00:24:56.685Z,1.10
2019-03-31T00:27:29.854Z,1.10
2019-03-31T00:30:02.960Z,1.10
2019-03-31T00:32:36.099Z,1.10
2019-03-31T00:35:11.414Z,1.10
2019-03-31T00:37:45.652Z,1.10
2019-03-31T00:40:18.617Z,1.10
2019-03-31T00:42:51.470Z,1.10
2019-03-31T00:45:24.235Z,1.10
2019-03-31T00:47:57.153Z,1.10
2019-03-31T00:50:30.552Z,1.00
2019-03-31T00:53:07.481Z,1.10
2019-03-31T00:55:40.327Z,1.10
2019-03-31T00:58:24.645Z,1.10
2019-03-31T01:01:16.977Z,1.10
2019-03-31T01:03:50.054Z,1.00
2019-03-31T01:06:23.479Z,1.10
2019-03-31T01:08:57.879Z,1.00
2019-03-31T01:11:31.348Z,1.00
2019-03-31T01:14:04.409Z,1.00
2019-03-31T01:16:37.625Z,1.00
2019-03-31T01:19:10.651Z,1.10
2019-03-31T01:21:43.933Z,1.00
2019-03-31T01:24:16.865Z,1.10
2019-03-31T01:26:50.668Z,1.10
2019-03-31T01:29:24.588Z,1.10
2019-03-31T01:31:59.810Z,1.10
2019-03-31T01:34:32.769Z,1.10
2019-03-31T01:37:06.103Z,1.10
2019-03-31T01:39:39.802Z,1.10
2019-03-31T01:42:12.644Z,1.10
2019-03-31T01:44:48.078Z,1.10
2019-03-31T01:47:21.822Z,1.10
2019-03-31T01:49:54.849Z,1.10
2019-03-31T01:52:27.550Z,1.10
2019-03-31T01:55:00.908Z,1.10
2019-03-31T01:57:35.406Z,1.20
2019-03-31T02:00:11.660Z,1.20
2019-03-31T02:02:45.687Z,1.20
2019-03-31T02:05:22.617Z,1.20
2019-03-31T02:07:55.523Z,1.20
2019-03-31T02:10:28.384Z,1.20
2019-03-31T02:13:01.429Z,1.20
2019-03-31T02:15:34.388Z,1.20
2019-03-31T02:18:12.623Z,1.20
2019-03-31T02:20:46.765Z,1.20
2019-03-31T02:23:19.881Z,1.20
2019-03-31T02:25:52.610Z,1.30
2019-03-31T02:28:25.756Z,1.20
2019-03-31T02:30:58.505Z,1.30
2019-03-31T02:33:31.496Z,1.30
2019-03-31T02:36:04.754Z,1.30
2019-03-31T02:38:37.581Z,1.30
2019-03-31T02:41:10.715Z,1.30
2019-03-31T02:43:43.632Z,1.30
2019-03-31T02:46:16.660Z,1.20
2019-03-31T02:48:49.812Z,1.30
2019-03-31T02:51:23.002Z,1.20
2019-03-31T02:53:55.915Z,1.30
2019-03-31T02:56:29.918Z,1.30
2019-03-31T02:59:04.200Z,1.30
2019-03-31T03:01:39.665Z,1.30
2019-03-31T03:04:14.601Z,1.30
2019-03-31T03:06:53.970Z,1.30
2019-03-31T03:09:29.792Z,1.20
2019-03-31T03:12:04.383Z,1.30
2019-03-31T03:14:40.040Z,1.30
2019-03-31T03:17:14.287Z,1.30
2019-03-31T03:19:47.511Z,1.30
2019-03-31T03:22:20.762Z,1.30
2019-03-31T03:24:53.674Z,1.30
2019-03-31T03:27:26.637Z,1.30
2019-03-31T03:29:59.513Z,1.30
2019-03-31T03:32:32.342Z,1.30
2019-03-31T03:35:08.507Z,1.30
2019-03-31T03:37:42.610Z,1.30
2019-03-31T03:40:15.400Z,1.30
2019-03-31T03:42:48.379Z,1.30
2019-03-31T03:45:21.272Z,1.30
2019-03-31T03:47:54.503Z,1.40
2019-03-31T03:50:27.556Z,1.30
2019-03-31T03:53:00.398Z,1.30
2019-03-31T03:55:33.320Z,1.30
2019-03-31T03:58:06.596Z,1.30
2019-03-31T04:00:40.905Z,1.40
2019-03-31T04:03:29.975Z,1.40
2019-03-31T04:05:50.853Z,1.30
2019-03-31T04:08:23.886Z,1.30
2019-03-31T04:11:14.853Z,1.30
2019-03-31T04:13:48.077Z,1.40
2019-03-31T04:16:21.316Z,1.40
2019-03-31T04:18:55.335Z,1.40
2019-03-31T04:21:28.804Z,1.40
2019-03-31T04:24:02.836Z,1.40
2019-03-31T04:26:35.838Z,1.40
2019-03-31T04:29:08.883Z,1.40
2019-03-31T04:31:43.231Z,1.40
2019-03-31T04:34:16.201Z,1.40
2019-03-31T04:36:51.477Z,1.40
2019-03-31T04:39:26.646Z,1.30
2019-03-31T04:42:04.613Z,1.30
2019-03-31T04:44:37.671Z,1.30
2019-03-31T04:47:10.683Z,1.20
2019-03-31T04:49:43.489Z,1.20
2019-03-31T04:52:16.356Z,1.30
2019-03-31T04:54:49.433Z,1.30
2019-03-31T04:57:22.374Z,1.40
2019-03-31T04:59:55.430Z,1.40
2019-03-31T05:02:28.155Z,1.40
2019-03-31T05:05:01.199Z,1.50
2019-03-31T05:07:33.959Z,1.40
2019-03-31T05:10:08.419Z,1.40
2019-03-31T05:12:41.431Z,1.40
2019-03-31T05:15:14.208Z,1.40
2019-03-31T05:17:47.276Z,1.40
2019-03-31T05:20:20.686Z,1.40
2019-03-31T05:22:56.066Z,1.40
2019-03-31T05:25:29.563Z,1.40
2019-03-31T05:28:02.566Z,1.40
2019-03-31T05:30:37.107Z,1.40
2019-03-31T05:33:10.093Z,1.30
2019-03-31T05:35:43.043Z,1.30
2019-03-31T05:38:16.238Z,1.30
2019-03-31T05:40:49.194Z,1.40
2019-03-31T05:43:22.207Z,1.40
2019-03-31T05:45:55.734Z,1.40
2019-03-31T05:48:28.581Z,1.40
2019-03-31T05:51:01.495Z,1.40
2019-03-31T05:53:34.863Z,1.40
2019-03-31T05:56:11.295Z,1.40
2019-03-31T05:58:44.097Z,1.40
2019-03-31T06:01:17.020Z,1.30
2019-03-31T06:03:51.582Z,1.30
2019-03-31T06:06:24.639Z,1.30
2019-03-31T06:08:57.420Z,1.40
2019-03-31T06:11:30.544Z,1.40
2019-03-31T06:14:06.051Z,1.40
2019-03-31T06:16:38.828Z,1.40
2019-03-31T06:19:11.828Z,1.40
2019-03-31T06:21:45.320Z,1.40
2019-03-31T06:24:18.239Z,1.40
2019-03-31T06:26:51.367Z,1.40
2019-03-31T06:29:24.702Z,1.50
2019-03-31T06:31:58.397Z,1.50
2019-03-31T06:34:31.792Z,1.40
2019-03-31T06:37:07.367Z,1.40
2019-03-31T06:39:40.513Z,1.40
2019-03-31T06:42:13.374Z,1.40
2019-03-31T06:44:46.876Z,1.40
2019-03-31T06:47:19.629Z,1.40
2019-03-31T06:49:52.691Z,1.40
2019-03-31T06:52:26.292Z,1.40
2019-03-31T06:54:59.265Z,1.40
2019-03-31T06:57:32.160Z,1.40
2019-03-31T07:00:06.068Z,1.40
2019-03-31T07:02:39.760Z,1.40
2019-03-31T07:05:13.273Z,1.40
2019-03-31T07:07:46.396Z,1.40
2019-03-31T07:10:19.305Z,1.40
2019-03-31T07:12:52.039Z,1.40
2019-03-31T07:15:25.119Z,1.40
2019-03-31T07:17:57.899Z,1.40
2019-03-31T07:20:31.234Z,1.40
2019-03-31T07:23:05.376Z,1.40
2019-03-31T07:25:39.896Z,1.40
2019-03-31T07:28:13.329Z,1.40
2019-03-31T07:30:46.518Z,1.40
2019-03-31T07:33:19.919Z,1.40
2019-03-31T07:35:53.523Z,1.40
2019-03-31T07:38:38.338Z,1.40
2019-03-31T07:41:12.478Z,1.40
2019-03-31T07:43:39.422Z,1.40
2019-03-31T07:46:12.061Z,1.40
2019-03-31T07:48:45.034Z,1.40
2019-03-31T07:51:17.746Z,1.40
2019-03-31T07:53:50.759Z,1.40
2019-03-31T07:56:23.410Z,1.40
2019-03-31T07:58:56.401Z,1.40
2019-03-31T08:01:29.430Z,1.40
2019-03-31T08:04:02.464Z,1.40
2019-03-31T08:06:35.982Z,1.40
2019-03-31T08:09:10.644Z,1.40
2019-03-31T08:11:43.898Z,1.40
2019-03-31T08:14:17.539Z,1.40
2019-03-31T08:16:50.836Z,1.30
2019-03-31T08:19:24.027Z,1.30
2019-03-31T08:21:59.323Z,1.30
2019-03-31T08:24:44.543Z,1.30
2019-03-31T08:27:21.210Z,1.30
2019-03-31T08:30:00.856Z,1.30
2019-03-31T08:32:30.739Z,1.30
2019-03-31T08:35:04.445Z,1.30
2019-03-31T08:37:40.222Z,1.30
2019-03-31T08:40:15.468Z,1.30
2019-03-31T08:42:51.444Z,1.30
2019-03-31T08:45:26.710Z,1.30
2019-03-31T08:47:59.436Z,1.30
2019-03-31T08:50:34.870Z,1.30
2019-03-31T08:53:06.660Z,1.30
2019-03-31T08:55:42.240Z,1.20
2019-03-31T08:58:14.960Z,1.30
2019-03-31T09:00:55.128Z,1.30
2019-03-31T09:03:28.247Z,1.30
2019-03-31T09:06:02.558Z,1.20
2019-03-31T09:08:36.132Z,1.30
2019-03-31T09:11:09.228Z,1.30
2019-03-31T09:13:42.034Z,1.30
2019-03-31T09:16:15.449Z,1.20
2019-03-31T09:18:48.673Z,1.30
2019-03-31T09:21:21.653Z,1.30
2019-03-31T09:23:54.995Z,1.30
2019-03-31T09:26:27.855Z,1.30
2019-03-31T09:29:00.777Z,1.20
2019-03-31T09:31:33.694Z,1.20
2019-03-31T09:34:07.062Z,1.20
2019-03-31T09:36:40.246Z,1.20
2019-03-31T09:39:16.019Z,1.20
2019-03-31T09:41:48.881Z,1.30
2019-03-31T09:44:21.736Z,1.30
2019-03-31T09:46:57.237Z,1.30
2019-03-31T09:49:30.252Z,1.30
2019-03-31T09:52:03.273Z,1.30
2019-03-31T09:54:36.341Z,1.30
2019-03-31T09:57:09.531Z,1.20
2019-03-31T09:59:42.442Z,1.20
2019-03-31T10:02:15.970Z,1.20
2019-03-31T10:04:48.805Z,1.20
2019-03-31T10:07:23.851Z,1.10
2019-03-31T10:09:56.823Z,1.10
2019-03-31T10:12:29.827Z,1.10
2019-03-31T10:15:02.551Z,1.10
2019-03-31T10:17:37.813Z,1.10
2019-03-31T10:20:11.455Z,1.10
2019-03-31T10:22:44.560Z,1.10
2019-03-31T10:25:17.485Z,1.10
2019-03-31T10:27:51.727Z,1.00
2019-03-31T10:30:33.181Z,1.00
2019-03-31T10:33:10.184Z,1.10
2019-03-31T10:35:43.072Z,1.10
2019-03-31T10:38:16.398Z,1.10
2019-03-31T10:40:52.210Z,1.10
2019-03-31T10:43:25.433Z,1.10
2019-03-31T10:45:58.683Z,1.00
2019-03-31T10:48:31.824Z,1.10
2019-03-31T10:51:05.484Z,1.10
2019-03-31T10:53:38.239Z,1.00
2019-03-31T10:56:11.271Z,1.00
2019-03-31T10:58:44.125Z,1.00
2019-03-31T11:01:18.264Z,1.00
2019-03-31T11:03:51.431Z,1.00
2019-03-31T11:06:24.525Z,1.00
2019-03-31T11:08:57.264Z,1.00
2019-03-31T11:11:32.931Z,1.00
2019-03-31T11:14:05.818Z,1.00
2019-03-31T11:16:41.532Z,0.90
2019-03-31T11:19:15.882Z,0.90
2019-03-31T11:21:57.862Z,0.90
2019-03-31T11:24:30.633Z,0.90
2019-03-31T11:27:03.843Z,0.90
2019-03-31T11:29:36.812Z,0.90
2019-03-31T11:32:09.651Z,0.90
2019-03-31T11:34:42.440Z,0.90
2019-03-31T11:37:15.591Z,0.80
2019-03-31T11:39:48.664Z,0.80
2019-03-31T11:42:22.178Z,0.80
2019-03-31T11:44:55.562Z,0.80
2019-03-31T11:47:28.300Z,0.70
2019-03-31T11:50:01.238Z,0.70
2019-03-31T11:52:33.989Z,0.70
2019-03-31T11:55:06.793Z,0.60
2019-03-31T11:57:39.893Z,0.60
2019-03-31T12:00:15.427Z,0.60
2019-03-31T12:02:48.077Z,0.60
2019-03-31T12:05:20.919Z,0.60
2019-03-31T12:07:54.029Z,0.50
2019-03-31T12:10:26.986Z,0.50
2019-03-31T12:13:00.047Z,0.50
2019-03-31T12:15:33.709Z,0.50
2019-03-31T12:18:06.707Z,0.40
2019-03-31T12:20:40.407Z,0.40
2019-03-31T12:23:14.306Z,0.40
2019-03-31T12:25:47.857Z,0.40
2019-03-31T12:28:20.880Z,0.30
2019-03-31T12:30:55.667Z,0.30
2019-03-31T12:33:28.509Z,0.30
2019-03-31T12:36:01.668Z,0.30
2019-03-31T12:38:35.244Z,0.30
2019-03-31T12:41:08.064Z,0.30
2019-03-31T12:43:41.470Z,0.20
2019-03-31T12:46:18.536Z,0.30
2019-03-31T12:48:51.416Z,0.30
2019-03-31T12:51:24.322Z,0.20
2019-03-31T12:53:57.347Z,0.20
2019-03-31T12:56:30.809Z,0.30
2019-03-31T12:59:03.630Z,0.40
2019-03-31T13:01:36.642Z,0.40
2019-03-31T13:04:10.036Z,0.40
2019-03-31T13:06:43.074Z,0.40
2019-03-31T13:09:16.247Z,0.50
2019-03-31T13:11:50.527Z,0.80
2019-03-31T13:14:26.163Z,0.80
2019-03-31T13:17:02.304Z,0.80
2019-03-31T13:19:38.008Z,1.00
2019-03-31T13:22:10.856Z,1.00
2019-03-31T13:24:44.544Z,1.10
2019-03-31T13:27:17.625Z,1.20
2019-03-31T13:29:50.842Z,1.20
2019-03-31T13:32:26.006Z,1.20
2019-03-31T13:34:58.789Z,1.10
2019-03-31T13:37:33.251Z,1.10
2019-03-31T13:40:06.202Z,1.10
2019-03-31T13:42:39.883Z,1.20
2019-03-31T13:45:13.110Z,1.20
2019-03-31T13:47:46.079Z,1.20
2019-03-31T13:50:19.664Z,1.40
2019-03-31T13:52:52.652Z,1.50
2019-03-31T13:55:25.454Z,1.40
2019-03-31T13:57:58.538Z,1.30
2019-03-31T14:00:43.669Z,1.40
2019-03-31T14:03:17.011Z,1.40
2019-03-31T14:05:49.914Z,1.80
2019-03-31T14:08:25.957Z,1.80
2019-03-31T14:10:57.637Z,1.90
2019-03-31T14:13:37.883Z,1.80
2019-03-31T14:16:16.823Z,1.70
2019-03-31T14:18:50.158Z,1.70
2019-03-31T14:21:23.268Z,1.80
2019-03-31T14:23:57.626Z,2.00
2019-03-31T14:26:30.467Z,2.00
2019-03-31T14:29:03.394Z,1.90
2019-03-31T14:31:36.643Z,1.70
2019-03-31T14:34:10.958Z,1.50
2019-03-31T14:36:43.695Z,1.50
2019-03-31T14:39:17.244Z,1.50
2019-03-31T14:41:50.806Z,1.70
2019-03-31T14:44:23.662Z,1.80
2019-03-31T14:47:06.120Z,1.80
2019-03-31T14:49:41.578Z,1.80
2019-03-31T14:52:26.645Z,1.50
2019-03-31T14:54:49.186Z,1.40
2019-03-31T14:57:22.394Z,1.30
2019-03-31T14:59:55.978Z,1.20
2019-03-31T15:02:28.871Z,1.30
2019-03-31T15:05:02.163Z,1.50
2019-03-31T15:07:36.138Z,1.80
2019-03-31T15:10:10.082Z,1.70
2019-03-31T15:12:43.791Z,1.60
2019-03-31T15:15:19.235Z,1.70
2019-03-31T15:17:52.727Z,1.70
2019-03-31T15:20:25.887Z,1.70
2019-03-31T15:22:59.169Z,1.60
2019-03-31T15:25:32.871Z,1.70
2019-03-31T15:28:05.907Z,1.80
2019-03-31T15:30:38.848Z,1.70
2019-03-31T15:33:12.495Z,1.90
2019-03-31T15:35:46.507Z,1.80
2019-03-31T15:38:19.683Z,2.00
2019-03-31T15:40:52.924Z,2.20
2019-03-31T15:43:25.875Z,2.40
2019-03-31T15:45:59.133Z,2.30
2019-03-31T15:48:32.022Z,2.20
2019-03-31T15:51:04.800Z,2.30
2019-03-31T15:53:37.640Z,2.40
2019-03-31T15:56:10.643Z,2.40
2019-03-31T15:58:46.127Z,2.40
2019-03-31T16:01:23.083Z,2.50
2019-03-31T16:03:57.647Z,2.50
2019-03-31T16:06:30.813Z,2.70
2019-03-31T16:09:03.059Z,2.80
2019-03-31T16:11:35.275Z,3.00
2019-03-31T16:14:08.108Z,3.00
2019-03-31T16:16:40.640Z,2.80
2019-03-31T16:19:13.409Z,2.70
2019-03-31T16:21:45.635Z,2.70
2019-03-31T16:24:19.691Z,2.70
2019-03-31T16:26:53.017Z,2.70
2019-03-31T16:29:26.707Z,2.60
2019-03-31T16:31:59.179Z,2.70
2019-03-31T16:34:32.739Z,2.70
2019-03-31T16:37:05.169Z,2.90
2019-03-31T16:39:38.350Z,3.10
2019-03-31T16:42:10.923Z,3.10
2019-03-31T16:44:57.138Z,3.00
2019-03-31T16:47:18.808Z,2.90
2019-03-31T16:49:51.468Z,2.80
2019-03-31T16:52:28.012Z,2.70
2019-03-31T16:55:01.186Z,2.70
2019-03-31T16:57:38.702Z,2.80
2019-03-31T17:00:12.655Z,2.80
2019-03-31T17:13:27.623Z,3.50
2019-03-31T17:16:00.323Z,3.50
2019-03-31T17:18:33.406Z,3.40
2019-03-31T17:21:05.962Z,3.20
2019-03-31T17:23:38.376Z,3.00
2019-03-31T17:26:12.224Z,2.90
2019-03-31T17:28:45.937Z,2.80
2019-03-31T17:31:19.149Z,2.80
2019-03-31T17:33:52.136Z,2.90
2019-03-31T17:36:24.986Z,2.90
2019-03-31T17:38:58.885Z,2.90
2019-03-31T17:41:31.460Z,3.10
2019-03-31T17:44:08.587Z,3.30
2019-03-31T17:46:41.381Z,3.60
2019-03-31T17:49:15.159Z,3.50
2019-03-31T17:51:48.167Z,3.20
2019-03-31T17:54:20.436Z,3.30
2019-03-31T17:56:53.416Z,3.40
2019-03-31T17:59:26.068Z,3.60
2019-03-31T18:01:59.463Z,3.60
2019-03-31T18:04:32.049Z,3.50
2019-03-31T18:07:04.788Z,3.30
2019-03-31T18:09:37.217Z,3.20
2019-03-31T18:12:09.731Z,3.20
2019-03-31T18:14:42.293Z,3.20
2019-03-31T18:17:14.968Z,3.00
2019-03-31T18:19:47.845Z,2.90
2019-03-31T18:22:20.632Z,2.80
2019-03-31T18:24:53.321Z,2.70
2019-03-31T18:27:25.827Z,2.60
2019-03-31T18:29:59.258Z,2.60
2019-03-31T18:32:31.661Z,2.60
2019-03-31T18:35:04.398Z,2.60
2019-03-31T18:37:36.756Z,2.70
2019-03-31T18:40:10.670Z,2.70
2019-03-31T18:42:43.672Z,2.80
2019-03-31T18:45:16.606Z,2.80
2019-03-31T18:47:49.386Z,3.00
2019-03-31T18:50:21.738Z,3.10
2019-03-31T18:52:54.543Z,3.30
2019-03-31T18:55:34.972Z,3.50
2019-03-31T18:58:23.950Z,3.60
2019-03-31T19:01:20.694Z,3.70
2019-03-31T19:04:17.962Z,3.60
2019-03-31T19:07:11.929Z,3.40
2019-03-31T19:10:24.206Z,3.30
2019-03-31T19:12:52.950Z,3.20
2019-03-31T19:15:36.353Z,2.90
2019-03-31T19:18:32.793Z,2.70
2019-03-31T19:21:26.870Z,2.40
2019-03-31T19:24:29.576Z,2.30
2019-03-31T19:27:32.445Z,2.30
2019-03-31T19:30:26.146Z,2.40
2019-03-31T19:33:30.304Z,2.60
2019-03-31T19:36:20.288Z,2.90
2019-03-31T19:39:14.779Z,3.20
2019-03-31T19:42:04.777Z,3.60
2019-03-31T19:44:55.985Z,3.70
2019-03-31T19:47:52.854Z,3.70
2019-03-31T19:50:42.312Z,3.80
2019-03-31T19:53:27.077Z,3.60
2019-03-31T19:56:17.617Z,3.20
2019-03-31T19:59:12.635Z,2.70
2019-03-31T20:02:02.485Z,2.40
2019-03-31T20:04:48.677Z,2.20
2019-03-31T20:07:31.395Z,2.10
2019-03-31T20:10:37.768Z,2.10
2019-03-31T20:13:27.342Z,2.20
2019-03-31T20:16:18.619Z,2.20
2019-03-31T20:19:05.684Z,2.20
2019-03-31T20:21:59.645Z,2.30
2019-03-31T20:25:02.333Z,2.50
2019-03-31T20:27:44.437Z,2.60
2019-03-31T20:30:33.589Z,2.70
2019-03-31T20:33:33.209Z,2.60
2019-03-31T20:36:15.926Z,2.60
2019-03-31T20:38:59.701Z,2.60
2019-03-31T20:41:59.375Z,2.50
2019-03-31T20:44:32.048Z,2.70
2019-03-31T20:47:04.941Z,2.70
2019-03-31T20:49:37.333Z,2.70
2019-03-31T20:52:09.868Z,2.50
2019-03-31T20:54:42.631Z,2.70
2019-03-31T20:57:14.990Z,2.90
2019-03-31T20:59:47.481Z,2.90
2019-03-31T21:02:20.650Z,2.90
2019-03-31T21:04:53.143Z,2.90
2019-03-31T21:07:26.094Z,2.90
2019-03-31T21:09:58.309Z,2.70
2019-03-31T21:12:30.924Z,2.50
2019-03-31T21:15:03.160Z,2.20
2019-03-31T21:17:35.976Z,2.00
2019-03-31T21:20:09.023Z,1.80
2019-03-31T21:22:41.663Z,1.70
2019-03-31T21:25:14.382Z,1.70
2019-03-31T21:27:46.806Z,1.80
2019-03-31T21:30:19.461Z,1.80
2019-03-31T21:32:51.907Z,1.90
2019-03-31T21:35:24.425Z,1.90
2019-03-31T21:37:57.647Z,2.00
2019-03-31T21:40:30.027Z,1.80
2019-03-31T21:43:02.405Z,1.70
2019-03-31T21:45:35.567Z,1.60
2019-03-31T21:48:08.025Z,1.50
2019-03-31T21:50:40.674Z,1.40
2019-03-31T21:53:13.389Z,1.30
2019-03-31T21:55:46.169Z,1.40
2019-03-31T21:58:18.807Z,1.40
2019-03-31T22:00:56.375Z,1.50
2019-03-31T22:03:28.791Z,1.40
2019-03-31T22:06:01.702Z,1.40
2019-03-31T22:08:33.825Z,1.50
2019-03-31T22:11:06.182Z,1.50
2019-03-31T22:13:38.521Z,1.60
2019-03-31T22:16:11.213Z,1.50
2019-03-31T22:18:44.392Z,1.50
2019-03-31T22:21:16.946Z,1.50
2019-03-31T22:23:57.935Z,1.50
2019-03-31T22:26:23.201Z,1.50
2019-03-31T22:28:55.439Z,1.50
2019-03-31T22:31:28.112Z,1.40
2019-03-31T22:34:01.375Z,1.40
2019-03-31T22:36:33.614Z,1.40
2019-03-31T22:39:07.473Z,1.30
2019-03-31T22:41:39.999Z,1.20
2019-03-31T22:44:12.716Z,1.20
2019-03-31T22:46:54.246Z,1.20
2019-03-31T22:49:19.713Z,1.10
2019-03-31T22:51:52.278Z,1.00
2019-03-31T22:54:24.743Z,0.80
2019-03-31T22:56:57.327Z,0.60
2019-03-31T22:59:29.807Z,0.50
2019-03-31T23:02:02.699Z,0.40
2019-03-31T23:04:35.209Z,0.40
2019-03-31T23:07:08.002Z,0.40
2019-03-31T23:09:40.466Z,0.40
2019-03-31T23:12:13.218Z,0.40
2019-03-31T23:14:45.514Z,0.40
2019-03-31T23:17:17.936Z,0.40
2019-03-31T23:19:50.926Z,0.30
2019-03-31T23:22:23.188Z,0.30
2019-03-31T23:24:56.102Z,0.40
2019-03-31T23:27:28.456Z,0.30
2019-03-31T23:30:00.792Z,0.30
2019-03-31T23:32:33.480Z,0.30
2019-03-31T23:35:06.115Z,0.40
2019-03-31T23:37:38.797Z,0.40
2019-03-31T23:40:12.096Z,0.40
2019-03-31T23:42:44.425Z,0.40
2019-03-31T23:45:17.009Z,0.40
2019-03-31T23:47:49.505Z,0.40
2019-03-31T23:50:22.082Z,0.40
2019-03-31T23:52:54.662Z,0.30
2019-03-31T23:55:27.448Z,0.30
2019-03-31T23:58:00.011Z,0.40
